createdAt,value
2018-06-02T00:02:16.496Z,41.25
2018-06-02T00:04:43.974Z,44.80
2018-06-02T00:07:11.437Z,47.00
2018-06-02T00:09:38.902Z,43.40
2018-06-02T00:12:06.333Z,43.70
2018-06-02T00:14:33.891Z,43.40
2018-06-02T00:17:01.365Z,42.03
2018-06-02T00:19:28.869Z,41.65
2018-06-02T00:21:56.301Z,44.75
2018-06-02T00:24:23.756Z,46.05
2018-06-02T00:26:51.202Z,47.38
2018-06-02T00:29:18.648Z,43.22
2018-06-02T00:31:46.094Z,46.40
2018-06-02T00:34:13.562Z,46.97
2018-06-02T00:36:41.010Z,47.92
2018-06-02T00:39:08.467Z,49.75
2018-06-02T00:41:36.221Z,49.78
2018-06-02T00:44:03.704Z,49.55
2018-06-02T00:46:31.139Z,44.90
2018-06-02T00:48:58.582Z,44.28
2018-06-02T00:51:26.065Z,43.30
2018-06-02T00:53:53.520Z,43.75
2018-06-02T00:56:20.969Z,42.90
2018-06-02T00:58:48.419Z,42.55
2018-06-02T01:01:15.881Z,43.58
2018-06-02T01:03:43.304Z,42.50
2018-06-02T01:06:10.769Z,42.55
2018-06-02T01:08:38.211Z,42.40
2018-06-02T01:11:06.437Z,41.55
2018-06-02T01:13:33.981Z,43.65
2018-06-02T01:16:01.404Z,46.25
2018-06-02T01:18:28.843Z,47.00
2018-06-02T01:20:57.084Z,49.05
2018-06-02T01:23:24.488Z,49.60
2018-06-02T01:25:51.936Z,51.17
2018-06-02T01:28:20.180Z,51.80
2018-06-02T01:30:47.729Z,51.88
2018-06-02T01:33:15.160Z,51.90
2018-06-02T01:35:42.605Z,53.50
2018-06-02T01:38:10.079Z,53.90
2018-06-02T01:40:37.525Z,53.83
2018-06-02T01:43:05.758Z,54.38
2018-06-02T01:45:33.965Z,51.53
2018-06-02T01:48:01.407Z,49.20
2018-06-02T01:50:29.827Z,47.90
2018-06-02T01:52:57.272Z,47.85
2018-06-02T01:55:24.725Z,47.45
2018-06-02T01:57:52.169Z,50.60
2018-06-02T02:00:19.622Z,49.53
2018-06-02T02:02:47.060Z,51.37
2018-06-02T02:05:15.288Z,51.30
2018-06-02T02:07:42.742Z,54.17
2018-06-02T02:10:11.049Z,54.30
2018-06-02T02:12:38.500Z,52.38
2018-06-02T02:15:05.940Z,55.22
2018-06-02T02:17:33.456Z,55.05
2018-06-02T02:20:00.906Z,53.75
2018-06-02T02:22:29.120Z,55.47
2018-06-02T02:24:56.588Z,55.58
2018-06-02T02:27:24.036Z,54.13
2018-06-02T02:29:51.497Z,55.88
2018-06-02T02:32:18.964Z,56.37
2018-06-02T02:34:46.409Z,58.03
2018-06-02T02:37:13.863Z,57.40
2018-06-02T02:39:41.290Z,58.07
2018-06-02T02:42:08.728Z,60.85
2018-06-02T02:44:36.940Z,62.00
2018-06-02T02:47:04.372Z,69.30
2018-06-02T02:49:31.825Z,73.25
2018-06-02T02:51:59.272Z,73.85
2018-06-02T02:54:28.024Z,73.85
2018-06-02T02:56:55.461Z,77.03
2018-06-02T02:59:22.938Z,81.75
2018-06-02T03:01:50.473Z,87.90
2018-06-02T03:04:18.040Z,93.47
2018-06-02T03:06:45.500Z,99.37
2018-06-02T03:09:12.950Z,102.90
2018-06-02T03:11:40.404Z,108.50
2018-06-02T03:14:07.878Z,116.90
2018-06-02T03:16:35.324Z,125.10
2018-06-02T03:19:02.762Z,127.80
2018-06-02T03:21:30.214Z,130.57
2018-06-02T03:23:57.657Z,136.50
2018-06-02T03:26:25.164Z,140.12
2018-06-02T03:28:52.613Z,140.48
2018-06-02T03:31:20.077Z,147.55
2018-06-02T03:33:47.516Z,150.25
2018-06-02T03:36:14.975Z,149.87
2018-06-02T03:38:42.419Z,151.30
2018-06-02T03:41:09.872Z,153.62
2018-06-02T03:43:37.316Z,150.73
2018-06-02T03:46:04.777Z,148.05
2018-06-02T03:48:32.232Z,151.85
2018-06-02T03:50:59.692Z,149.98
2018-06-02T03:53:27.141Z,148.68
2018-06-02T03:55:54.602Z,152.60
2018-06-02T03:58:22.056Z,156.63
2018-06-02T04:00:49.505Z,156.80
2018-06-02T04:03:16.978Z,155.52
2018-06-02T04:05:44.429Z,159.23
2018-06-02T04:08:11.883Z,159.23
2018-06-02T04:10:39.345Z,161.02
2018-06-02T04:13:06.785Z,162.95
2018-06-02T04:15:34.995Z,162.03
2018-06-02T04:18:02.456Z,168.35
2018-06-02T04:20:29.930Z,169.73
2018-06-02T04:22:57.379Z,166.98
2018-06-02T04:25:24.821Z,167.13
2018-06-02T04:27:52.277Z,168.00
2018-06-02T04:30:19.732Z,168.93
2018-06-02T04:32:47.192Z,169.15
2018-06-02T04:35:14.673Z,168.82
2018-06-02T04:37:42.118Z,166.25
2018-06-02T04:40:09.569Z,167.82
2018-06-02T04:42:37.042Z,168.90
2018-06-02T04:45:04.493Z,169.27
2018-06-02T04:47:31.941Z,174.75
2018-06-02T04:49:59.397Z,176.25
2018-06-02T04:52:26.852Z,166.33
2018-06-02T04:54:54.320Z,164.37
2018-06-02T04:57:21.788Z,162.77
2018-06-02T04:59:49.341Z,161.55
2018-06-02T05:02:16.788Z,161.62
2018-06-02T05:04:44.240Z,159.37
2018-06-02T05:07:11.693Z,151.57
2018-06-02T05:09:39.156Z,143.27
2018-06-02T05:12:06.604Z,136.27
2018-06-02T05:14:34.075Z,134.55
2018-06-02T05:17:01.520Z,128.60
2018-06-02T05:19:29.005Z,131.35
2018-06-02T05:21:56.460Z,123.82
2018-06-02T05:24:24.741Z,120.20
2018-06-02T05:26:52.196Z,115.57
2018-06-02T05:29:19.653Z,118.18
2018-06-02T05:31:47.166Z,117.60
2018-06-02T05:34:14.632Z,112.75
2018-06-02T05:36:42.104Z,115.37
2018-06-02T05:39:09.573Z,117.22
2018-06-02T05:41:37.031Z,119.75
2018-06-02T05:44:04.480Z,123.60
2018-06-02T05:46:31.939Z,125.05
2018-06-02T05:48:59.384Z,125.37
2018-06-02T05:51:26.836Z,126.90
2018-06-02T05:53:54.279Z,127.63
2018-06-02T05:56:21.772Z,132.77
2018-06-02T05:58:49.237Z,130.23
2018-06-02T06:01:16.681Z,125.57
2018-06-02T06:03:44.175Z,121.85
2018-06-02T06:06:12.388Z,123.22
2018-06-02T06:08:39.847Z,124.00
2018-06-02T06:11:07.297Z,109.47
2018-06-02T06:13:34.856Z,104.00
2018-06-02T06:16:02.276Z,92.83
2018-06-02T06:18:30.592Z,130.27
2018-06-02T06:20:58.049Z,113.07
2018-06-02T06:23:25.493Z,80.80
2018-06-02T06:25:52.941Z,80.18
2018-06-02T06:28:20.381Z,74.55
2018-06-02T06:30:48.582Z,70.65
2018-06-02T06:33:16.024Z,73.65
2018-06-02T06:35:43.500Z,80.20
2018-06-02T06:38:10.934Z,87.70
2018-06-02T06:40:39.153Z,94.40
2018-06-02T06:43:06.692Z,99.93
2018-06-02T06:45:34.151Z,110.90
2018-06-02T06:48:01.705Z,112.32
2018-06-02T06:50:29.158Z,107.12
2018-06-02T06:52:56.613Z,104.53
2018-06-02T06:55:24.063Z,100.38
2018-06-02T06:57:51.513Z,95.65
2018-06-02T07:00:18.956Z,100.97
2018-06-02T07:02:47.173Z,102.05
2018-06-02T07:05:14.623Z,103.15
2018-06-02T07:07:42.074Z,103.20
2018-06-02T07:10:09.519Z,106.37
2018-06-02T07:12:37.001Z,103.03
2018-06-02T07:15:04.432Z,100.32
2018-06-02T07:17:31.897Z,95.70
2018-06-02T07:19:59.353Z,86.60
2018-06-02T07:22:26.825Z,92.22
2018-06-02T07:24:54.292Z,88.82
2018-06-02T07:27:21.720Z,88.85
2018-06-02T07:29:49.160Z,83.45
2018-06-02T07:32:16.601Z,86.12
2018-06-02T07:34:44.810Z,80.80
2018-06-02T07:37:12.271Z,71.85
2018-06-02T07:39:39.725Z,74.07
2018-06-02T07:42:07.185Z,68.60
2018-06-02T07:44:34.628Z,65.80
2018-06-02T07:47:02.873Z,63.57
2018-06-02T07:49:30.344Z,59.75
2018-06-02T07:51:57.861Z,62.63
2018-06-02T07:54:25.316Z,62.47
2018-06-02T07:56:53.552Z,61.45
2018-06-02T07:59:21.016Z,61.00
2018-06-02T08:01:48.463Z,69.33
2018-06-02T08:04:15.916Z,62.35
2018-06-02T08:06:43.341Z,61.07
2018-06-02T08:09:11.576Z,61.97
2018-06-02T08:11:39.019Z,61.25
2018-06-02T08:14:06.497Z,64.43
2018-06-02T08:16:33.918Z,63.00
2018-06-02T08:19:01.430Z,65.95
2018-06-02T08:21:28.883Z,63.50
2018-06-02T08:23:56.316Z,61.33
2018-06-02T08:26:23.770Z,62.23
2018-06-02T08:28:51.215Z,64.07
2018-06-02T08:31:18.662Z,65.85
2018-06-02T08:33:46.136Z,63.40
2018-06-02T08:36:13.598Z,66.47
2018-06-02T08:38:41.869Z,69.60
2018-06-02T08:41:09.308Z,70.35
2018-06-02T08:43:36.773Z,63.90
2018-06-02T08:46:04.431Z,60.45
2018-06-02T08:48:31.909Z,60.17
2018-06-02T08:50:59.369Z,57.83
2018-06-02T08:53:26.812Z,55.58
2018-06-02T08:55:54.267Z,50.25
2018-06-02T08:58:21.720Z,47.57
2018-06-02T09:00:49.171Z,47.45
2018-06-02T09:03:16.668Z,48.60
2018-06-02T09:05:44.117Z,47.88
2018-06-02T09:08:11.738Z,49.35
2018-06-02T09:10:39.168Z,48.17
2018-06-02T09:13:07.381Z,47.33
2018-06-02T09:15:34.872Z,49.67
2018-06-02T09:18:02.316Z,48.22
2018-06-02T09:20:29.801Z,48.53
2018-06-02T09:22:58.038Z,48.83
2018-06-02T09:25:25.509Z,51.10
2018-06-02T09:27:53.006Z,46.17
2018-06-02T09:30:21.192Z,41.10
2018-06-02T09:32:48.673Z,44.05
2018-06-02T09:35:16.166Z,41.50
2018-06-02T09:37:43.604Z,40.75
2018-06-02T09:40:11.164Z,40.35
2018-06-02T09:42:38.795Z,42.28
2018-06-02T09:45:06.229Z,42.88
2018-06-02T09:47:33.676Z,43.95
2018-06-02T09:50:02.288Z,44.88
2018-06-02T09:52:29.716Z,42.42
2018-06-02T09:54:58.024Z,40.70
2018-06-02T09:57:25.486Z,40.10
2018-06-02T09:59:53.004Z,40.03
2018-06-02T10:02:20.433Z,39.25
2018-06-02T10:04:48.671Z,38.70
2018-06-02T10:07:16.144Z,37.85
2018-06-02T10:09:43.682Z,33.05
2018-06-02T10:12:11.112Z,28.23
2018-06-02T10:14:39.629Z,26.40
2018-06-02T10:17:07.077Z,22.70
2018-06-02T10:19:34.549Z,21.40
2018-06-02T10:22:02.022Z,20.02
2018-06-02T10:24:29.449Z,20.27
2018-06-02T10:26:56.924Z,20.62
2018-06-02T10:29:24.364Z,19.83
2018-06-02T10:31:51.937Z,20.90
2018-06-02T10:34:19.384Z,18.50
2018-06-02T10:36:46.820Z,21.15
2018-06-02T10:39:14.312Z,24.23
2018-06-02T10:41:41.764Z,21.35
2018-06-02T10:44:09.257Z,21.00
2018-06-02T10:46:36.685Z,20.20
2018-06-02T10:49:04.218Z,19.37
2018-06-02T10:51:31.661Z,19.40
2018-06-02T10:53:59.132Z,20.23
2018-06-02T10:56:26.688Z,19.48
2018-06-02T10:58:54.174Z,19.48
2018-06-02T11:01:21.608Z,19.27
2018-06-02T11:03:49.060Z,21.20
2018-06-02T11:06:16.549Z,21.33
2018-06-02T11:08:44.009Z,20.70
2018-06-02T11:11:11.453Z,21.00
2018-06-02T11:13:38.930Z,23.15
2018-06-02T11:16:06.364Z,20.62
2018-06-02T11:18:33.904Z,19.20
2018-06-02T11:21:01.361Z,19.10
2018-06-02T11:23:28.841Z,18.30
2018-06-02T11:25:56.280Z,22.30
2018-06-02T11:28:23.731Z,25.37
2018-06-02T11:30:51.307Z,27.30
2018-06-02T11:33:18.773Z,26.90
2018-06-02T11:35:46.232Z,27.60
2018-06-02T11:38:13.693Z,28.08
2018-06-02T11:40:41.248Z,28.05
2018-06-02T11:43:08.688Z,28.35
2018-06-02T11:45:36.145Z,27.92
2018-06-02T11:48:03.579Z,27.13
2018-06-02T11:50:31.140Z,26.33
2018-06-02T11:52:58.605Z,26.47
2018-06-02T11:55:26.800Z,25.88
2018-06-02T11:57:54.268Z,25.00
2018-06-02T12:00:21.749Z,25.05
2018-06-02T12:02:49.958Z,26.58
2018-06-02T12:05:17.419Z,27.67
2018-06-02T12:07:44.886Z,26.00
2018-06-02T12:10:12.377Z,25.85
2018-06-02T12:12:39.818Z,24.73
2018-06-02T12:15:07.351Z,26.08
2018-06-02T12:17:34.789Z,26.80
2018-06-02T12:20:02.264Z,27.80
2018-06-02T12:22:29.696Z,28.55
2018-06-02T12:24:57.141Z,25.15
2018-06-02T12:27:25.354Z,25.10
2018-06-02T12:29:52.908Z,23.83
2018-06-02T12:32:20.333Z,23.73
2018-06-02T12:34:48.598Z,26.08
2018-06-02T12:37:16.003Z,27.08
2018-06-02T12:39:43.550Z,26.42
2018-06-02T12:42:10.977Z,27.42
2018-06-02T12:44:39.245Z,31.05
2018-06-02T12:47:07.499Z,32.97
2018-06-02T12:49:36.501Z,31.55
2018-06-02T12:52:04.683Z,31.40
2018-06-02T12:54:32.898Z,33.50
2018-06-02T12:57:00.355Z,33.78
2018-06-02T12:59:27.845Z,33.23
2018-06-02T13:01:55.395Z,32.00
2018-06-02T13:04:22.835Z,35.10
2018-06-02T13:06:50.281Z,37.47
2018-06-02T13:09:17.727Z,35.95
2018-06-02T13:11:45.228Z,35.90
2018-06-02T13:14:12.686Z,37.30
2018-06-02T13:16:40.246Z,35.90
2018-06-02T13:19:07.689Z,36.05
2018-06-02T13:21:35.130Z,34.90
2018-06-02T13:24:02.581Z,35.00
2018-06-02T13:26:30.024Z,36.10
2018-06-02T13:28:57.517Z,39.47
2018-06-02T13:31:25.029Z,41.90
2018-06-02T13:33:52.465Z,40.47
2018-06-02T13:36:20.668Z,43.27
2018-06-02T13:38:48.121Z,41.03
2018-06-02T13:41:16.321Z,40.50
2018-06-02T13:43:43.799Z,38.70
2018-06-02T13:46:11.248Z,38.03
2018-06-02T13:48:38.704Z,38.88
2018-06-02T13:51:06.150Z,39.50
2018-06-02T13:53:33.593Z,45.42
2018-06-02T13:56:01.069Z,45.33
2018-06-02T13:58:28.538Z,43.30
2018-06-02T14:00:55.976Z,40.25
2018-06-02T14:03:23.428Z,39.50
2018-06-02T14:05:50.878Z,42.13
2018-06-02T14:08:18.335Z,42.78
2018-06-02T14:10:45.814Z,45.78
2018-06-02T14:13:13.256Z,44.40
2018-06-02T14:15:40.700Z,43.90
2018-06-02T14:18:08.133Z,44.05
2018-06-02T14:20:35.596Z,41.60
2018-06-02T14:23:03.786Z,46.58
2018-06-02T14:25:31.310Z,49.45
2018-06-02T14:27:58.725Z,49.03
2018-06-02T14:30:26.160Z,50.15
2018-06-02T14:32:53.637Z,52.95
2018-06-02T14:35:21.146Z,51.10
2018-06-02T14:37:49.455Z,52.92
2018-06-02T14:40:16.919Z,53.87
2018-06-02T14:42:44.390Z,51.33
2018-06-02T14:45:11.918Z,52.40
2018-06-02T14:47:39.369Z,52.80
2018-06-02T14:50:06.880Z,50.22
2018-06-02T14:52:34.429Z,48.67
2018-06-02T14:55:01.936Z,50.05
2018-06-02T14:57:29.358Z,50.33
2018-06-02T14:59:58.337Z,50.80
2018-06-02T15:02:25.773Z,51.25
2018-06-02T15:04:54.118Z,51.43
2018-06-02T15:07:21.586Z,50.72
2018-06-02T15:09:49.048Z,47.37
2018-06-02T15:12:16.506Z,48.50
2018-06-02T15:14:43.943Z,45.90
2018-06-02T15:17:11.527Z,46.03
2018-06-02T15:19:38.995Z,48.70
2018-06-02T15:22:06.479Z,46.85
2018-06-02T15:24:33.924Z,46.20
2018-06-02T15:27:01.377Z,44.38
2018-06-02T15:29:28.837Z,46.28
2018-06-02T15:31:56.290Z,45.05
2018-06-02T15:34:23.813Z,43.83
2018-06-02T15:36:51.267Z,44.78
2018-06-02T15:39:18.711Z,46.17
2018-06-02T15:41:46.197Z,47.83
2018-06-02T15:44:13.713Z,48.53
2018-06-02T15:46:42.038Z,50.22
2018-06-02T15:49:09.579Z,51.97
2018-06-02T15:51:37.105Z,50.33
2018-06-02T15:54:05.314Z,50.63
2018-06-02T15:56:32.762Z,50.22
2018-06-02T15:59:00.202Z,49.58
2018-06-02T16:01:28.432Z,48.92
2018-06-02T16:03:55.972Z,48.05
2018-06-02T16:06:23.524Z,48.42
2018-06-02T16:08:50.952Z,48.13
2018-06-02T16:11:18.399Z,47.58
2018-06-02T16:13:46.668Z,49.78
2018-06-02T16:16:14.906Z,49.53
2018-06-02T16:18:42.354Z,49.65
2018-06-02T16:21:09.810Z,50.47
2018-06-02T16:23:37.347Z,50.20
2018-06-02T16:26:04.787Z,47.95
2018-06-02T16:28:32.240Z,49.63
2018-06-02T16:31:00.484Z,50.15
2018-06-02T16:33:27.939Z,51.72
2018-06-02T16:35:55.401Z,50.53
2018-06-02T16:38:24.388Z,48.35
2018-06-02T16:40:51.848Z,47.78
2018-06-02T16:43:19.421Z,46.65
2018-06-02T16:45:47.663Z,47.13
2018-06-02T16:48:15.197Z,46.63
2018-06-02T16:50:42.641Z,48.60
2018-06-02T16:53:10.223Z,50.95
2018-06-02T16:55:37.808Z,51.03
2018-06-02T16:58:05.359Z,50.80
2018-06-02T17:00:32.843Z,50.40
2018-06-02T17:03:00.288Z,51.88
2018-06-02T17:05:27.825Z,49.28
2018-06-02T17:07:55.385Z,50.30
2018-06-02T17:10:22.912Z,51.83
2018-06-02T17:12:50.368Z,48.15
2018-06-02T17:15:17.939Z,48.60
2018-06-02T17:17:45.384Z,48.63
2018-06-02T17:22:46.691Z,49.28
2018-06-02T17:25:14.120Z,51.47
2018-06-02T17:27:41.673Z,51.83
2018-06-02T17:30:09.126Z,50.70
2018-06-02T17:34:51.959Z,54.20
2018-06-02T17:37:20.154Z,54.57
2018-06-02T17:39:48.254Z,56.85
2018-06-02T17:42:16.360Z,55.08
2018-06-02T17:44:44.501Z,55.35
2018-06-02T17:47:12.573Z,53.23
2018-06-02T17:49:40.649Z,51.43
2018-06-02T17:52:08.705Z,51.10
2018-06-02T17:54:36.738Z,50.88
2018-06-02T17:57:04.932Z,51.02
2018-06-02T17:59:33.251Z,48.30
2018-06-02T18:02:01.425Z,48.13
2018-06-02T18:04:30.203Z,47.08
2018-06-02T18:06:58.308Z,47.80
2018-06-02T18:09:26.483Z,46.37
2018-06-02T18:11:54.744Z,46.58
2018-06-02T18:14:22.840Z,46.80
2018-06-02T18:16:50.928Z,46.00
2018-06-02T18:19:19.046Z,45.90
2018-06-02T18:21:47.184Z,47.10
2018-06-02T18:24:15.457Z,46.77
2018-06-02T18:26:43.859Z,46.00
2018-06-02T18:29:12.014Z,46.00
2018-06-02T18:31:40.052Z,45.75
2018-06-02T18:34:08.196Z,47.08
2018-06-02T18:36:36.269Z,43.50
2018-06-02T18:39:05.772Z,45.05
2018-06-02T18:41:33.871Z,44.15
2018-06-02T18:44:02.237Z,45.03
2018-06-02T18:46:30.410Z,44.73
2018-06-02T18:48:58.482Z,46.30
2018-06-02T18:51:26.593Z,46.35
2018-06-02T18:53:54.741Z,48.28
2018-06-02T18:56:22.854Z,49.63
2018-06-02T18:58:50.896Z,48.92
2018-06-02T19:01:18.987Z,50.23
2018-06-02T19:03:47.045Z,48.95
2018-06-02T19:06:15.123Z,50.75
2018-06-02T19:08:43.254Z,52.13
2018-06-02T19:11:11.330Z,53.28
2018-06-02T19:13:39.398Z,53.13
2018-06-02T19:16:07.454Z,50.55
2018-06-02T19:18:35.545Z,51.33
2018-06-02T19:21:03.740Z,51.63
2018-06-02T19:23:32.149Z,50.57
2018-06-02T19:26:00.209Z,51.53
2018-06-02T19:28:28.476Z,48.63
2018-06-02T19:30:56.544Z,47.78
2018-06-02T19:33:24.691Z,46.27
2018-06-02T19:35:52.723Z,46.83
2018-06-02T19:38:20.813Z,46.33
2018-06-02T19:40:48.952Z,46.68
2018-06-02T19:43:17.105Z,47.20
2018-06-02T19:45:45.177Z,46.27
2018-06-02T19:48:13.286Z,45.80
2018-06-02T19:50:41.475Z,45.25
2018-06-02T19:53:09.681Z,45.95
2018-06-02T19:55:37.822Z,45.35
2018-06-02T19:58:06.003Z,47.40
2018-06-02T20:00:34.175Z,45.92
2018-06-02T20:03:02.313Z,47.20
2018-06-02T20:05:30.367Z,48.00
2018-06-02T20:07:58.492Z,49.18
2018-06-02T20:10:26.581Z,49.20
2018-06-02T20:12:54.623Z,48.83
2018-06-02T20:15:22.675Z,49.05
2018-06-02T20:17:50.767Z,50.15
2018-06-02T20:20:18.813Z,50.10
2018-06-02T20:22:46.888Z,51.28
2018-06-02T20:25:14.985Z,50.03
2018-06-02T20:27:43.153Z,48.60
2018-06-02T20:30:11.325Z,51.25
2018-06-02T20:32:39.412Z,50.55
2018-06-02T20:35:07.568Z,50.50
2018-06-02T20:37:35.664Z,51.70
2018-06-02T20:40:03.731Z,52.93
2018-06-02T20:42:31.840Z,53.40
2018-06-02T20:44:59.941Z,55.48
2018-06-02T20:47:27.986Z,54.50
2018-06-02T20:49:56.067Z,53.40
2018-06-02T20:52:24.090Z,57.38
2018-06-02T20:54:52.202Z,57.48
2018-06-02T20:57:20.353Z,56.18
2018-06-02T20:59:48.563Z,60.03
2018-06-02T21:02:16.653Z,62.53
2018-06-02T21:04:44.825Z,60.80
2018-06-02T21:07:12.900Z,61.02
2018-06-02T21:09:40.997Z,57.75
2018-06-02T21:12:09.090Z,62.35
2018-06-02T21:14:37.174Z,60.70
2018-06-02T21:17:05.284Z,60.23
2018-06-02T21:19:33.442Z,62.27
2018-06-02T21:22:01.524Z,61.00
2018-06-02T21:24:29.614Z,59.95
2018-06-02T21:26:57.636Z,61.57
2018-06-02T21:29:25.676Z,63.90
2018-06-02T21:31:53.721Z,64.37
2018-06-02T21:34:21.729Z,64.90
2018-06-02T21:36:49.773Z,63.45
2018-06-02T21:39:17.867Z,66.25
2018-06-02T21:41:45.935Z,65.45
2018-06-02T21:44:14.052Z,64.97
2018-06-02T21:46:42.231Z,68.02
2018-06-02T21:49:10.980Z,65.15
2018-06-02T21:51:39.048Z,68.62
2018-06-02T21:54:07.114Z,67.27
2018-06-02T21:56:35.196Z,68.52
2018-06-02T21:59:03.074Z,65.47
2018-06-02T22:01:31.100Z,70.22
2018-06-02T22:03:59.136Z,69.30
2018-06-02T22:06:27.311Z,67.78
2018-06-02T22:08:55.577Z,67.70
2018-06-02T22:11:30.546Z,68.17
2018-06-02T22:13:58.617Z,68.17
2018-06-02T22:16:26.796Z,69.40
2018-06-02T22:18:54.865Z,72.30
2018-06-02T22:21:23.020Z,68.05
2018-06-02T22:23:51.077Z,70.60
2018-06-02T22:26:19.145Z,69.87
2018-06-02T22:28:47.196Z,69.82
2018-06-02T22:31:15.290Z,70.50
2018-06-02T22:33:43.356Z,72.85
2018-06-02T22:36:11.437Z,69.30
2018-06-02T22:38:39.473Z,69.40
2018-06-02T22:41:07.517Z,71.42
2018-06-02T22:43:35.593Z,67.45
2018-06-02T22:46:03.672Z,69.60
2018-06-02T22:48:31.764Z,70.72
2018-06-02T22:50:59.866Z,69.90
2018-06-02T22:53:27.936Z,70.57
2018-06-02T22:55:56.051Z,70.42
2018-06-02T22:58:23.904Z,69.77
2018-06-02T23:00:51.971Z,72.12
2018-06-02T23:03:20.026Z,69.47
2018-06-02T23:05:48.272Z,66.57
2018-06-02T23:08:16.401Z,68.87
2018-06-02T23:10:44.448Z,62.85
2018-06-02T23:13:12.501Z,63.30
2018-06-02T23:15:40.600Z,63.30
2018-06-02T23:18:08.625Z,58.35
2018-06-02T23:20:36.680Z,56.10
2018-06-02T23:23:04.829Z,55.92
2018-06-02T23:25:32.881Z,57.17
2018-06-02T23:28:01.004Z,52.13
2018-06-02T23:30:29.073Z,52.93
2018-06-02T23:32:57.149Z,53.25
2018-06-02T23:35:25.196Z,54.80
2018-06-02T23:37:53.268Z,54.75
2018-06-02T23:40:21.367Z,53.70
2018-06-02T23:42:49.409Z,54.38
2018-06-02T23:45:17.431Z,53.25
2018-06-02T23:47:45.493Z,54.70
2018-06-02T23:50:13.573Z,56.08
2018-06-02T23:52:41.620Z,55.70
2018-06-02T23:55:09.630Z,56.35
2018-06-02T23:57:37.680Z,56.18
